sensor_id;sensor_type;location;lat;lon;timestamp;P1;durP1;ratioP1;P2;durP2;ratioP2
25015;SDS011;13029;46.286;7.488;2023-04-06T00:00:30;3.10;;;1.90;;
25015;SDS011;13029;46.286;7.488;2023-04-06T00:02:56;2.80;;;2.10;;
25015;SDS011;13029;46.286;7.488;2023-04-06T00:05:21;6.15;;;2.70;;
25015;SDS011;13029;46.286;7.488;2023-04-06T00:07:47;2.85;;;2.10;;
25015;SDS011;13029;46.286;7.488;2023-04-06T00:10:13;4.70;;;2.40;;
25015;SDS011;13029;46.286;7.488;2023-04-06T00:12:38;3.05;;;2.10;;
25015;SDS011;13029;46.286;7.488;2023-04-06T00:15:04;3.17;;;2.00;;
25015;SDS011;13029;46.286;7.488;2023-04-06T00:17:30;4.35;;;2.20;;
25015;SDS011;13029;46.286;7.488;2023-04-06T00:19:56;2.40;;;1.80;;
25015;SDS011;13029;46.286;7.488;2023-04-06T00:22:21;4.07;;;2.20;;
25015;SDS011;13029;46.286;7.488;2023-04-06T00:24:46;2.55;;;1.80;;
25015;SDS011;13029;46.286;7.488;2023-04-06T00:27:12;3.72;;;2.17;;
25015;SDS011;13029;46.286;7.488;2023-04-06T00:29:37;4.15;;;2.30;;
25015;SDS011;13029;46.286;7.488;2023-04-06T00:32:03;2.53;;;2.00;;
25015;SDS011;13029;46.286;7.488;2023-04-06T00:34:29;4.65;;;2.58;;
25015;SDS011;13029;46.286;7.488;2023-04-06T00:36:54;4.18;;;2.88;;
25015;SDS011;13029;46.286;7.488;2023-04-06T00:39:20;4.82;;;2.90;;
25015;SDS011;13029;46.286;7.488;2023-04-06T00:41:45;4.78;;;3.30;;
25015;SDS011;13029;46.286;7.488;2023-04-06T00:44:11;5.43;;;3.30;;
25015;SDS011;13029;46.286;7.488;2023-04-06T00:46:37;5.15;;;3.08;;
25015;SDS011;13029;46.286;7.488;2023-04-06T00:49:02;4.85;;;2.90;;
25015;SDS011;13029;46.286;7.488;2023-04-06T00:51:27;5.95;;;3.20;;
25015;SDS011;13029;46.286;7.488;2023-04-06T00:53:53;3.97;;;2.72;;
25015;SDS011;13029;46.286;7.488;2023-04-06T00:56:19;5.35;;;2.95;;
25015;SDS011;13029;46.286;7.488;2023-04-06T00:58:44;4.97;;;2.95;;
25015;SDS011;13029;46.286;7.488;2023-04-06T01:01:10;4.45;;;2.95;;
25015;SDS011;13029;46.286;7.488;2023-04-06T01:03:35;3.97;;;2.55;;
25015;SDS011;13029;46.286;7.488;2023-04-06T01:06:01;5.00;;;2.60;;
25015;SDS011;13029;46.286;7.488;2023-04-06T01:08:26;3.63;;;2.63;;
25015;SDS011;13029;46.286;7.488;2023-04-06T01:10:52;5.72;;;2.92;;
25015;SDS011;13029;46.286;7.488;2023-04-06T01:13:17;4.70;;;2.97;;
25015;SDS011;13029;46.286;7.488;2023-04-06T01:15:42;4.63;;;2.42;;
25015;SDS011;13029;46.286;7.488;2023-04-06T01:18:08;3.72;;;2.70;;
25015;SDS011;13029;46.286;7.488;2023-04-06T01:20:35;9.00;;;3.05;;
25015;SDS011;13029;46.286;7.488;2023-04-06T01:23:00;4.75;;;3.03;;
25015;SDS011;13029;46.286;7.488;2023-04-06T01:25:26;5.82;;;3.22;;
25015;SDS011;13029;46.286;7.488;2023-04-06T01:27:51;5.57;;;3.05;;
25015;SDS011;13029;46.286;7.488;2023-04-06T01:30:17;5.25;;;3.00;;
25015;SDS011;13029;46.286;7.488;2023-04-06T01:32:42;6.22;;;2.92;;
25015;SDS011;13029;46.286;7.488;2023-04-06T01:35:08;5.85;;;3.00;;
25015;SDS011;13029;46.286;7.488;2023-04-06T01:37:33;3.80;;;2.80;;
25015;SDS011;13029;46.286;7.488;2023-04-06T01:39:59;3.95;;;2.60;;
25015;SDS011;13029;46.286;7.488;2023-04-06T01:42:25;3.47;;;2.72;;
25015;SDS011;13029;46.286;7.488;2023-04-06T01:44:51;5.40;;;2.63;;
25015;SDS011;13029;46.286;7.488;2023-04-06T01:47:16;3.42;;;2.70;;
25015;SDS011;13029;46.286;7.488;2023-04-06T01:49:41;4.22;;;3.05;;
25015;SDS011;13029;46.286;7.488;2023-04-06T01:52:07;6.88;;;2.38;;
25015;SDS011;13029;46.286;7.488;2023-04-06T01:54:32;3.75;;;2.20;;
25015;SDS011;13029;46.286;7.488;2023-04-06T01:56:58;3.85;;;2.50;;
25015;SDS011;13029;46.286;7.488;2023-04-06T01:59:23;3.58;;;2.78;;
25015;SDS011;13029;46.286;7.488;2023-04-06T02:01:49;3.17;;;2.60;;
25015;SDS011;13029;46.286;7.488;2023-04-06T02:04:14;3.90;;;2.22;;
25015;SDS011;13029;46.286;7.488;2023-04-06T02:06:40;3.97;;;2.10;;
25015;SDS011;13029;46.286;7.488;2023-04-06T02:09:05;3.97;;;2.40;;
25015;SDS011;13029;46.286;7.488;2023-04-06T02:11:31;3.50;;;2.70;;
25015;SDS011;13029;46.286;7.488;2023-04-06T02:13:56;5.55;;;2.40;;
25015;SDS011;13029;46.286;7.488;2023-04-06T02:16:21;4.25;;;2.58;;
25015;SDS011;13029;46.286;7.488;2023-04-06T02:18:47;4.47;;;2.80;;
25015;SDS011;13029;46.286;7.488;2023-04-06T02:21:12;4.88;;;2.70;;
25015;SDS011;13029;46.286;7.488;2023-04-06T02:23:37;5.20;;;2.90;;
25015;SDS011;13029;46.286;7.488;2023-04-06T02:26:03;4.13;;;3.13;;
25015;SDS011;13029;46.286;7.488;2023-04-06T02:28:28;7.10;;;3.25;;
25015;SDS011;13029;46.286;7.488;2023-04-06T02:30:53;4.63;;;3.00;;
25015;SDS011;13029;46.286;7.488;2023-04-06T02:33:19;5.72;;;3.35;;
25015;SDS011;13029;46.286;7.488;2023-04-06T02:35:44;4.90;;;3.03;;
25015;SDS011;13029;46.286;7.488;2023-04-06T02:38:10;4.30;;;3.00;;
25015;SDS011;13029;46.286;7.488;2023-04-06T02:40:36;3.97;;;2.83;;
25015;SDS011;13029;46.286;7.488;2023-04-06T02:43:01;3.83;;;3.08;;
25015;SDS011;13029;46.286;7.488;2023-04-06T02:45:26;6.05;;;3.40;;
25015;SDS011;13029;46.286;7.488;2023-04-06T02:47:52;5.10;;;3.63;;
25015;SDS011;13029;46.286;7.488;2023-04-06T02:50:17;4.55;;;2.95;;
25015;SDS011;13029;46.286;7.488;2023-04-06T02:52:42;4.45;;;3.15;;
25015;SDS011;13029;46.286;7.488;2023-04-06T02:55:08;4.50;;;3.33;;
25015;SDS011;13029;46.286;7.488;2023-04-06T02:57:33;6.78;;;2.97;;
25015;SDS011;13029;46.286;7.488;2023-04-06T02:59:59;4.85;;;3.08;;
25015;SDS011;13029;46.286;7.488;2023-04-06T03:02:24;4.97;;;3.17;;
25015;SDS011;13029;46.286;7.488;2023-04-06T03:04:50;5.22;;;2.97;;
25015;SDS011;13029;46.286;7.488;2023-04-06T03:07:15;5.38;;;3.08;;
25015;SDS011;13029;46.286;7.488;2023-04-06T03:09:40;4.30;;;3.05;;
25015;SDS011;13029;46.286;7.488;2023-04-06T03:12:06;4.25;;;3.17;;
25015;SDS011;13029;46.286;7.488;2023-04-06T03:14:31;6.28;;;3.17;;
25015;SDS011;13029;46.286;7.488;2023-04-06T03:16:56;6.82;;;3.03;;
25015;SDS011;13029;46.286;7.488;2023-04-06T03:19:22;5.35;;;3.33;;
25015;SDS011;13029;46.286;7.488;2023-04-06T03:21:47;4.00;;;3.13;;
25015;SDS011;13029;46.286;7.488;2023-04-06T03:24:12;8.18;;;3.47;;
25015;SDS011;13029;46.286;7.488;2023-04-06T03:26:38;5.95;;;3.28;;
25015;SDS011;13029;46.286;7.488;2023-04-06T03:29:04;4.65;;;3.00;;
25015;SDS011;13029;46.286;7.488;2023-04-06T03:31:29;5.35;;;2.60;;
25015;SDS011;13029;46.286;7.488;2023-04-06T03:33:55;5.13;;;3.38;;
25015;SDS011;13029;46.286;7.488;2023-04-06T03:36:20;3.75;;;2.40;;
25015;SDS011;13029;46.286;7.488;2023-04-06T03:38:46;5.65;;;3.05;;
25015;SDS011;13029;46.286;7.488;2023-04-06T03:41:11;5.70;;;2.65;;
25015;SDS011;13029;46.286;7.488;2023-04-06T03:43:37;5.47;;;2.55;;
25015;SDS011;13029;46.286;7.488;2023-04-06T03:46:02;3.78;;;2.60;;
25015;SDS011;13029;46.286;7.488;2023-04-06T03:48:27;5.88;;;2.70;;
25015;SDS011;13029;46.286;7.488;2023-04-06T03:50:53;4.68;;;2.88;;
25015;SDS011;13029;46.286;7.488;2023-04-06T03:53:18;8.70;;;3.13;;
25015;SDS011;13029;46.286;7.488;2023-04-06T03:55:43;4.45;;;3.00;;
25015;SDS011;13029;46.286;7.488;2023-04-06T03:58:09;4.22;;;2.80;;
25015;SDS011;13029;46.286;7.488;2023-04-06T04:00:34;4.18;;;2.80;;
25015;SDS011;13029;46.286;7.488;2023-04-06T04:03:00;3.40;;;2.60;;
25015;SDS011;13029;46.286;7.488;2023-04-06T04:05:27;3.33;;;2.45;;
25015;SDS011;13029;46.286;7.488;2023-04-06T04:07:52;3.92;;;2.90;;
25015;SDS011;13029;46.286;7.488;2023-04-06T04:10:17;3.97;;;2.50;;
25015;SDS011;13029;46.286;7.488;2023-04-06T04:12:43;6.25;;;2.85;;
25015;SDS011;13029;46.286;7.488;2023-04-06T04:15:08;3.47;;;2.72;;
25015;SDS011;13029;46.286;7.488;2023-04-06T04:17:34;4.13;;;2.70;;
25015;SDS011;13029;46.286;7.488;2023-04-06T04:19:59;5.20;;;2.95;;
25015;SDS011;13029;46.286;7.488;2023-04-06T04:22:24;4.97;;;2.97;;
25015;SDS011;13029;46.286;7.488;2023-04-06T04:24:50;3.13;;;2.28;;
25015;SDS011;13029;46.286;7.488;2023-04-06T04:27:15;5.55;;;2.85;;
25015;SDS011;13029;46.286;7.488;2023-04-06T04:29:40;5.95;;;3.28;;
25015;SDS011;13029;46.286;7.488;2023-04-06T04:32:06;6.78;;;2.70;;
25015;SDS011;13029;46.286;7.488;2023-04-06T04:34:31;3.33;;;2.28;;
25015;SDS011;13029;46.286;7.488;2023-04-06T04:36:57;3.75;;;2.72;;
25015;SDS011;13029;46.286;7.488;2023-04-06T04:39:23;5.97;;;2.88;;
25015;SDS011;13029;46.286;7.488;2023-04-06T04:41:48;3.83;;;2.42;;
25015;SDS011;13029;46.286;7.488;2023-04-06T04:44:13;4.68;;;2.88;;
25015;SDS011;13029;46.286;7.488;2023-04-06T04:46:39;2.55;;;1.88;;
25015;SDS011;13029;46.286;7.488;2023-04-06T04:49:06;3.38;;;2.20;;
25015;SDS011;13029;46.286;7.488;2023-04-06T04:51:31;2.38;;;2.00;;
25015;SDS011;13029;46.286;7.488;2023-04-06T04:53:57;3.50;;;2.20;;
25015;SDS011;13029;46.286;7.488;2023-04-06T04:56:23;5.88;;;2.35;;
25015;SDS011;13029;46.286;7.488;2023-04-06T04:58:48;3.63;;;2.20;;
25015;SDS011;13029;46.286;7.488;2023-04-06T05:01:13;3.10;;;1.98;;
25015;SDS011;13029;46.286;7.488;2023-04-06T05:03:39;3.40;;;1.92;;
25015;SDS011;13029;46.286;7.488;2023-04-06T05:06:05;3.25;;;2.20;;
25015;SDS011;13029;46.286;7.488;2023-04-06T05:08:30;4.05;;;2.42;;
25015;SDS011;13029;46.286;7.488;2023-04-06T05:10:56;7.05;;;2.22;;
25015;SDS011;13029;46.286;7.488;2023-04-06T05:13:21;7.82;;;2.42;;
25015;SDS011;13029;46.286;7.488;2023-04-06T05:15:47;8.63;;;3.17;;
25015;SDS011;13029;46.286;7.488;2023-04-06T05:18:12;8.20;;;2.78;;
25015;SDS011;13029;46.286;7.488;2023-04-06T05:20:38;7.97;;;3.15;;
25015;SDS011;13029;46.286;7.488;2023-04-06T05:23:03;5.70;;;2.30;;
25015;SDS011;13029;46.286;7.488;2023-04-06T05:25:29;4.28;;;2.47;;
25015;SDS011;13029;46.286;7.488;2023-04-06T05:27:55;2.97;;;2.35;;
25015;SDS011;13029;46.286;7.488;2023-04-06T05:30:20;4.72;;;2.58;;
25015;SDS011;13029;46.286;7.488;2023-04-06T05:32:46;4.70;;;2.75;;
25015;SDS011;13029;46.286;7.488;2023-04-06T05:35:11;5.30;;;2.63;;
25015;SDS011;13029;46.286;7.488;2023-04-06T05:37:37;7.88;;;2.95;;
25015;SDS011;13029;46.286;7.488;2023-04-06T05:40:02;4.93;;;3.00;;
25015;SDS011;13029;46.286;7.488;2023-04-06T05:42:39;5.85;;;3.03;;
25015;SDS011;13029;46.286;7.488;2023-04-06T05:45:06;6.32;;;2.72;;
25015;SDS011;13029;46.286;7.488;2023-04-06T05:47:32;3.55;;;2.72;;
25015;SDS011;13029;46.286;7.488;2023-04-06T05:49:57;3.65;;;2.88;;
25015;SDS011;13029;46.286;7.488;2023-04-06T05:52:22;8.70;;;2.90;;
25015;SDS011;13029;46.286;7.488;2023-04-06T05:54:48;5.10;;;2.80;;
25015;SDS011;13029;46.286;7.488;2023-04-06T05:57:13;5.75;;;2.88;;
25015;SDS011;13029;46.286;7.488;2023-04-06T05:59:39;3.90;;;2.83;;
25015;SDS011;13029;46.286;7.488;2023-04-06T06:02:04;3.25;;;2.45;;
25015;SDS011;13029;46.286;7.488;2023-04-06T06:04:30;4.28;;;2.63;;
25015;SDS011;13029;46.286;7.488;2023-04-06T06:06:56;3.22;;;2.65;;
25015;SDS011;13029;46.286;7.488;2023-04-06T06:09:21;5.93;;;2.65;;
25015;SDS011;13029;46.286;7.488;2023-04-06T06:11:46;3.78;;;2.60;;
25015;SDS011;13029;46.286;7.488;2023-04-06T06:14:12;6.18;;;3.00;;
25015;SDS011;13029;46.286;7.488;2023-04-06T06:16:37;3.38;;;2.55;;
25015;SDS011;13029;46.286;7.488;2023-04-06T06:19:02;5.88;;;2.72;;
25015;SDS011;13029;46.286;7.488;2023-04-06T06:21:28;4.38;;;2.72;;
25015;SDS011;13029;46.286;7.488;2023-04-06T06:23:53;4.50;;;2.67;;
25015;SDS011;13029;46.286;7.488;2023-04-06T06:26:19;4.13;;;2.42;;
25015;SDS011;13029;46.286;7.488;2023-04-06T06:28:45;4.68;;;3.10;;
25015;SDS011;13029;46.286;7.488;2023-04-06T06:31:10;4.35;;;2.72;;
25015;SDS011;13029;46.286;7.488;2023-04-06T06:33:35;4.65;;;2.38;;
25015;SDS011;13029;46.286;7.488;2023-04-06T06:36:01;3.80;;;2.90;;
25015;SDS011;13029;46.286;7.488;2023-04-06T06:38:26;5.75;;;3.00;;
25015;SDS011;13029;46.286;7.488;2023-04-06T06:40:52;4.20;;;2.60;;
25015;SDS011;13029;46.286;7.488;2023-04-06T06:43:17;3.78;;;2.67;;
25015;SDS011;13029;46.286;7.488;2023-04-06T06:45:43;4.00;;;2.70;;
25015;SDS011;13029;46.286;7.488;2023-04-06T06:48:08;2.97;;;2.53;;
25015;SDS011;13029;46.286;7.488;2023-04-06T06:50:34;4.15;;;2.78;;
25015;SDS011;13029;46.286;7.488;2023-04-06T06:52:59;3.08;;;2.55;;
25015;SDS011;13029;46.286;7.488;2023-04-06T06:55:24;5.72;;;3.15;;
25015;SDS011;13029;46.286;7.488;2023-04-06T06:57:51;3.85;;;2.60;;
25015;SDS011;13029;46.286;7.488;2023-04-06T07:00:17;4.88;;;3.05;;
25015;SDS011;13029;46.286;7.488;2023-04-06T07:02:42;4.53;;;3.10;;
25015;SDS011;13029;46.286;7.488;2023-04-06T07:05:08;3.70;;;3.15;;
25015;SDS011;13029;46.286;7.488;2023-04-06T07:07:33;3.55;;;2.85;;
25015;SDS011;13029;46.286;7.488;2023-04-06T07:09:59;4.32;;;2.78;;
25015;SDS011;13029;46.286;7.488;2023-04-06T07:12:25;5.45;;;2.38;;
25015;SDS011;13029;46.286;7.488;2023-04-06T07:14:51;3.72;;;3.00;;
25015;SDS011;13029;46.286;7.488;2023-04-06T07:17:16;4.35;;;2.63;;
25015;SDS011;13029;46.286;7.488;2023-04-06T07:19:42;4.03;;;2.70;;
25015;SDS011;13029;46.286;7.488;2023-04-06T07:22:07;4.53;;;2.90;;
25015;SDS011;13029;46.286;7.488;2023-04-06T07:24:32;4.50;;;3.05;;
25015;SDS011;13029;46.286;7.488;2023-04-06T07:26:58;4.28;;;2.80;;
25015;SDS011;13029;46.286;7.488;2023-04-06T07:29:25;8.07;;;3.38;;
25015;SDS011;13029;46.286;7.488;2023-04-06T07:31:50;3.60;;;2.80;;
25015;SDS011;13029;46.286;7.488;2023-04-06T07:34:16;4.22;;;2.88;;
25015;SDS011;13029;46.286;7.488;2023-04-06T07:36:41;4.55;;;2.85;;
25015;SDS011;13029;46.286;7.488;2023-04-06T07:39:06;4.70;;;3.28;;
25015;SDS011;13029;46.286;7.488;2023-04-06T07:41:32;4.50;;;2.85;;
25015;SDS011;13029;46.286;7.488;2023-04-06T07:43:57;10.07;;;3.38;;
25015;SDS011;13029;46.286;7.488;2023-04-06T07:46:23;8.40;;;2.97;;
25015;SDS011;13029;46.286;7.488;2023-04-06T07:48:48;6.47;;;3.97;;
25015;SDS011;13029;46.286;7.488;2023-04-06T07:51:15;3.85;;;2.65;;
25015;SDS011;13029;46.286;7.488;2023-04-06T07:53:42;5.75;;;2.97;;
25015;SDS011;13029;46.286;7.488;2023-04-06T07:56:09;5.35;;;3.17;;
25015;SDS011;13029;46.286;7.488;2023-04-06T07:58:34;4.60;;;3.28;;
25015;SDS011;13029;46.286;7.488;2023-04-06T08:01:00;3.85;;;2.67;;
25015;SDS011;13029;46.286;7.488;2023-04-06T08:03:26;6.10;;;3.58;;
25015;SDS011;13029;46.286;7.488;2023-04-06T08:05:52;4.45;;;3.38;;
25015;SDS011;13029;46.286;7.488;2023-04-06T08:08:17;5.22;;;2.78;;
25015;SDS011;13029;46.286;7.488;2023-04-06T08:10:43;7.20;;;3.38;;
25015;SDS011;13029;46.286;7.488;2023-04-06T08:13:08;5.63;;;3.70;;
25015;SDS011;13029;46.286;7.488;2023-04-06T08:15:34;6.18;;;3.00;;
25015;SDS011;13029;46.286;7.488;2023-04-06T08:17:59;6.82;;;3.38;;
25015;SDS011;13029;46.286;7.488;2023-04-06T08:20:25;6.35;;;3.65;;
25015;SDS011;13029;46.286;7.488;2023-04-06T08:22:50;13.00;;;4.10;;
25015;SDS011;13029;46.286;7.488;2023-04-06T08:25:15;7.80;;;3.65;;
25015;SDS011;13029;46.286;7.488;2023-04-06T08:27:41;9.10;;;3.13;;
25015;SDS011;13029;46.286;7.488;2023-04-06T08:30:06;4.97;;;3.75;;
25015;SDS011;13029;46.286;7.488;2023-04-06T08:32:32;9.35;;;4.03;;
25015;SDS011;13029;46.286;7.488;2023-04-06T08:34:57;7.10;;;3.78;;
25015;SDS011;13029;46.286;7.488;2023-04-06T08:37:22;6.80;;;3.15;;
25015;SDS011;13029;46.286;7.488;2023-04-06T08:39:50;7.25;;;3.65;;
25015;SDS011;13029;46.286;7.488;2023-04-06T08:42:18;6.38;;;3.47;;
25015;SDS011;13029;46.286;7.488;2023-04-06T08:44:44;6.13;;;3.80;;
25015;SDS011;13029;46.286;7.488;2023-04-06T08:47:11;6.30;;;3.50;;
25015;SDS011;13029;46.286;7.488;2023-04-06T08:49:37;7.45;;;3.38;;
25015;SDS011;13029;46.286;7.488;2023-04-06T08:52:02;5.90;;;3.17;;
25015;SDS011;13029;46.286;7.488;2023-04-06T08:54:31;6.00;;;3.40;;
25015;SDS011;13029;46.286;7.488;2023-04-06T08:56:56;4.95;;;3.22;;
25015;SDS011;13029;46.286;7.488;2023-04-06T08:59:23;5.70;;;3.75;;
25015;SDS011;13029;46.286;7.488;2023-04-06T09:01:48;8.88;;;3.45;;
25015;SDS011;13029;46.286;7.488;2023-04-06T09:04:14;6.45;;;3.17;;
25015;SDS011;13029;46.286;7.488;2023-04-06T09:06:40;5.68;;;3.47;;
25015;SDS011;13029;46.286;7.488;2023-04-06T09:09:05;5.75;;;3.20;;
25015;SDS011;13029;46.286;7.488;2023-04-06T09:11:47;5.03;;;3.40;;
25015;SDS011;13029;46.286;7.488;2023-04-06T09:14:14;4.50;;;2.90;;
25015;SDS011;13029;46.286;7.488;2023-04-06T09:16:44;5.93;;;3.75;;
25015;SDS011;13029;46.286;7.488;2023-04-06T09:19:10;6.28;;;3.42;;
25015;SDS011;13029;46.286;7.488;2023-04-06T09:21:36;6.30;;;3.30;;
25015;SDS011;13029;46.286;7.488;2023-04-06T09:24:02;5.22;;;2.95;;
25015;SDS011;13029;46.286;7.488;2023-04-06T09:26:28;5.57;;;3.55;;
25015;SDS011;13029;46.286;7.488;2023-04-06T09:28:54;4.80;;;3.42;;
25015;SDS011;13029;46.286;7.488;2023-04-06T09:32:01;3.70;;;3.05;;
25015;SDS011;13029;46.286;7.488;2023-04-06T09:34:20;7.78;;;3.15;;
25015;SDS011;13029;46.286;7.488;2023-04-06T09:36:46;6.97;;;3.50;;
25015;SDS011;13029;46.286;7.488;2023-04-06T09:39:12;5.85;;;3.17;;
25015;SDS011;13029;46.286;7.488;2023-04-06T09:41:37;6.00;;;2.80;;
25015;SDS011;13029;46.286;7.488;2023-04-06T09:44:05;5.18;;;3.50;;
25015;SDS011;13029;46.286;7.488;2023-04-06T09:46:38;5.85;;;2.70;;
25015;SDS011;13029;46.286;7.488;2023-04-06T09:49:05;8.10;;;2.63;;
25015;SDS011;13029;46.286;7.488;2023-04-06T09:51:34;4.47;;;3.05;;
25015;SDS011;13029;46.286;7.488;2023-04-06T09:54:01;5.60;;;2.65;;
25015;SDS011;13029;46.286;7.488;2023-04-06T09:56:31;6.13;;;2.83;;
25015;SDS011;13029;46.286;7.488;2023-04-06T09:59:02;4.97;;;2.78;;
25015;SDS011;13029;46.286;7.488;2023-04-06T10:01:29;4.05;;;2.80;;
25015;SDS011;13029;46.286;7.488;2023-04-06T10:06:58;3.72;;;2.35;;
25015;SDS011;13029;46.286;7.488;2023-04-06T10:09:25;4.30;;;2.80;;
25015;SDS011;13029;46.286;7.488;2023-04-06T10:11:53;3.75;;;2.65;;
25015;SDS011;13029;46.286;7.488;2023-04-06T10:14:19;4.68;;;2.58;;
25015;SDS011;13029;46.286;7.488;2023-04-06T10:16:45;7.68;;;3.15;;
25015;SDS011;13029;46.286;7.488;2023-04-06T10:19:13;8.25;;;3.13;;
25015;SDS011;13029;46.286;7.488;2023-04-06T10:21:44;5.22;;;3.10;;
25015;SDS011;13029;46.286;7.488;2023-04-06T10:24:13;3.35;;;2.67;;
25015;SDS011;13029;46.286;7.488;2023-04-06T10:26:39;4.97;;;2.95;;
25015;SDS011;13029;46.286;7.488;2023-04-06T10:29:05;3.20;;;2.58;;
25015;SDS011;13029;46.286;7.488;2023-04-06T10:31:31;7.78;;;2.97;;
25015;SDS011;13029;46.286;7.488;2023-04-06T10:33:57;3.97;;;2.90;;
25015;SDS011;13029;46.286;7.488;2023-04-06T10:36:25;4.78;;;2.78;;
25015;SDS011;13029;46.286;7.488;2023-04-06T10:39:04;4.70;;;2.67;;
25015;SDS011;13029;46.286;7.488;2023-04-06T10:41:35;3.03;;;2.15;;
25015;SDS011;13029;46.286;7.488;2023-04-06T10:46:28;3.50;;;2.65;;
25015;SDS011;13029;46.286;7.488;2023-04-06T10:48:55;4.32;;;2.55;;
25015;SDS011;13029;46.286;7.488;2023-04-06T10:51:24;8.40;;;3.17;;
25015;SDS011;13029;46.286;7.488;2023-04-06T10:53:51;3.38;;;3.00;;
25015;SDS011;13029;46.286;7.488;2023-04-06T10:56:20;6.88;;;3.00;;
25015;SDS011;13029;46.286;7.488;2023-04-06T10:58:47;2.53;;;2.10;;
25015;SDS011;13029;46.286;7.488;2023-04-06T11:01:17;5.53;;;2.65;;
25015;SDS011;13029;46.286;7.488;2023-04-06T11:03:44;4.57;;;2.35;;
25015;SDS011;13029;46.286;7.488;2023-04-06T11:06:10;5.68;;;2.90;;
25015;SDS011;13029;46.286;7.488;2023-04-06T11:08:36;8.15;;;2.28;;
25015;SDS011;13029;46.286;7.488;2023-04-06T11:13:41;9.57;;;2.80;;
25015;SDS011;13029;46.286;7.488;2023-04-06T11:16:12;4.47;;;3.17;;
25015;SDS011;13029;46.286;7.488;2023-04-06T11:21:32;4.45;;;2.65;;
25015;SDS011;13029;46.286;7.488;2023-04-06T11:24:08;3.10;;;2.20;;
25015;SDS011;13029;46.286;7.488;2023-04-06T11:26:42;3.40;;;2.25;;
25015;SDS011;13029;46.286;7.488;2023-04-06T11:29:12;3.88;;;1.70;;
25015;SDS011;13029;46.286;7.488;2023-04-06T11:31:42;4.72;;;1.67;;
25015;SDS011;13029;46.286;7.488;2023-04-06T11:34:11;3.65;;;1.75;;
25015;SDS011;13029;46.286;7.488;2023-04-06T11:36:39;3.85;;;2.50;;
25015;SDS011;13029;46.286;7.488;2023-04-06T11:39:06;2.88;;;1.50;;
25015;SDS011;13029;46.286;7.488;2023-04-06T11:41:32;3.60;;;1.58;;
25015;SDS011;13029;46.286;7.488;2023-04-06T11:43:57;4.47;;;2.22;;
25015;SDS011;13029;46.286;7.488;2023-04-06T11:46:26;5.65;;;1.95;;
25015;SDS011;13029;46.286;7.488;2023-04-06T11:48:51;6.13;;;2.45;;
25015;SDS011;13029;46.286;7.488;2023-04-06T11:51:22;6.80;;;2.78;;
25015;SDS011;13029;46.286;7.488;2023-04-06T11:53:48;3.97;;;2.65;;
25015;SDS011;13029;46.286;7.488;2023-04-06T11:56:29;4.22;;;2.33;;
25015;SDS011;13029;46.286;7.488;2023-04-06T11:58:56;4.18;;;2.90;;
25015;SDS011;13029;46.286;7.488;2023-04-06T12:01:22;9.02;;;2.80;;
25015;SDS011;13029;46.286;7.488;2023-04-06T12:03:48;5.30;;;2.42;;
25015;SDS011;13029;46.286;7.488;2023-04-06T12:06:14;6.30;;;3.15;;
25015;SDS011;13029;46.286;7.488;2023-04-06T12:08:40;3.67;;;2.33;;
25015;SDS011;13029;46.286;7.488;2023-04-06T12:11:05;4.63;;;2.25;;
25015;SDS011;13029;46.286;7.488;2023-04-06T12:13:30;4.65;;;2.33;;
25015;SDS011;13029;46.286;7.488;2023-04-06T12:15:56;4.03;;;2.55;;
25015;SDS011;13029;46.286;7.488;2023-04-06T12:18:21;4.68;;;2.65;;
25015;SDS011;13029;46.286;7.488;2023-04-06T12:20:46;5.60;;;2.45;;
25015;SDS011;13029;46.286;7.488;2023-04-06T12:23:12;5.68;;;2.17;;
25015;SDS011;13029;46.286;7.488;2023-04-06T12:25:39;2.92;;;1.70;;
25015;SDS011;13029;46.286;7.488;2023-04-06T12:28:05;3.92;;;1.88;;
25015;SDS011;13029;46.286;7.488;2023-04-06T12:30:30;4.28;;;1.92;;
25015;SDS011;13029;46.286;7.488;2023-04-06T12:32:57;5.80;;;2.63;;
25015;SDS011;13029;46.286;7.488;2023-04-06T12:35:22;4.57;;;2.20;;
25015;SDS011;13029;46.286;7.488;2023-04-06T12:37:47;3.67;;;2.70;;
25015;SDS011;13029;46.286;7.488;2023-04-06T12:40:13;6.00;;;2.28;;
25015;SDS011;13029;46.286;7.488;2023-04-06T12:42:39;5.65;;;2.28;;
25015;SDS011;13029;46.286;7.488;2023-04-06T12:45:06;3.00;;;1.80;;
25015;SDS011;13029;46.286;7.488;2023-04-06T12:47:32;4.25;;;2.13;;
25015;SDS011;13029;46.286;7.488;2023-04-06T12:49:58;2.92;;;1.90;;
25015;SDS011;13029;46.286;7.488;2023-04-06T12:52:23;2.88;;;2.10;;
25015;SDS011;13029;46.286;7.488;2023-04-06T12:54:48;5.35;;;1.80;;
25015;SDS011;13029;46.286;7.488;2023-04-06T12:57:14;3.75;;;1.90;;
25015;SDS011;13029;46.286;7.488;2023-04-06T12:59:42;2.28;;;1.55;;
25015;SDS011;13029;46.286;7.488;2023-04-06T13:02:09;5.28;;;2.20;;
25015;SDS011;13029;46.286;7.488;2023-04-06T13:04:35;4.40;;;2.10;;
25015;SDS011;13029;46.286;7.488;2023-04-06T13:07:00;46.25;;;6.15;;
25015;SDS011;13029;46.286;7.488;2023-04-06T13:09:26;24.48;;;3.63;;
25015;SDS011;13029;46.286;7.488;2023-04-06T13:11:51;14.82;;;2.78;;
25015;SDS011;13029;46.286;7.488;2023-04-06T13:14:16;5.95;;;1.90;;
25015;SDS011;13029;46.286;7.488;2023-04-06T13:16:42;8.88;;;2.38;;
25015;SDS011;13029;46.286;7.488;2023-04-06T13:19:07;5.50;;;2.13;;
25015;SDS011;13029;46.286;7.488;2023-04-06T13:21:33;3.92;;;2.47;;
25015;SDS011;13029;46.286;7.488;2023-04-06T13:23:58;8.52;;;2.72;;
25015;SDS011;13029;46.286;7.488;2023-04-06T13:26:23;6.88;;;2.67;;
25015;SDS011;13029;46.286;7.488;2023-04-06T13:28:50;4.97;;;2.50;;
25015;SDS011;13029;46.286;7.488;2023-04-06T13:31:15;9.23;;;2.50;;
25015;SDS011;13029;46.286;7.488;2023-04-06T13:33:41;3.50;;;2.35;;
25015;SDS011;13029;46.286;7.488;2023-04-06T13:36:06;6.05;;;2.70;;
25015;SDS011;13029;46.286;7.488;2023-04-06T13:38:32;3.00;;;2.20;;
25015;SDS011;13029;46.286;7.488;2023-04-06T13:40:58;5.45;;;2.30;;
25015;SDS011;13029;46.286;7.488;2023-04-06T13:43:24;3.63;;;2.15;;
25015;SDS011;13029;46.286;7.488;2023-04-06T13:45:51;3.58;;;2.20;;
25015;SDS011;13029;46.286;7.488;2023-04-06T13:48:19;3.20;;;1.65;;
25015;SDS011;13029;46.286;7.488;2023-04-06T13:50:44;4.90;;;1.98;;
25015;SDS011;13029;46.286;7.488;2023-04-06T13:53:10;2.17;;;1.83;;
25015;SDS011;13029;46.286;7.488;2023-04-06T13:55:36;2.83;;;2.13;;
25015;SDS011;13029;46.286;7.488;2023-04-06T13:58:01;11.93;;;2.80;;
25015;SDS011;13029;46.286;7.488;2023-04-06T14:00:26;4.57;;;2.58;;
25015;SDS011;13029;46.286;7.488;2023-04-06T14:02:53;3.38;;;2.25;;
25015;SDS011;13029;46.286;7.488;2023-04-06T14:05:19;4.00;;;2.58;;
25015;SDS011;13029;46.286;7.488;2023-04-06T14:07:45;2.47;;;2.10;;
25015;SDS011;13029;46.286;7.488;2023-04-06T14:10:10;5.20;;;2.55;;
25015;SDS011;13029;46.286;7.488;2023-04-06T14:12:39;4.13;;;2.58;;
25015;SDS011;13029;46.286;7.488;2023-04-06T14:15:06;3.90;;;2.53;;
25015;SDS011;13029;46.286;7.488;2023-04-06T14:17:32;5.40;;;2.33;;
25015;SDS011;13029;46.286;7.488;2023-04-06T14:19:58;5.60;;;2.67;;
25015;SDS011;13029;46.286;7.488;2023-04-06T14:22:23;5.75;;;2.42;;
25015;SDS011;13029;46.286;7.488;2023-04-06T14:24:48;4.40;;;2.38;;
25015;SDS011;13029;46.286;7.488;2023-04-06T14:27:14;3.00;;;2.38;;
25015;SDS011;13029;46.286;7.488;2023-04-06T14:29:39;2.97;;;2.08;;
25015;SDS011;13029;46.286;7.488;2023-04-06T14:32:04;4.88;;;2.20;;
25015;SDS011;13029;46.286;7.488;2023-04-06T14:34:30;2.80;;;1.90;;
25015;SDS011;13029;46.286;7.488;2023-04-06T14:36:55;8.63;;;2.22;;
25015;SDS011;13029;46.286;7.488;2023-04-06T14:39:21;6.85;;;2.00;;
25015;SDS011;13029;46.286;7.488;2023-04-06T14:41:46;3.10;;;1.70;;
25015;SDS011;13029;46.286;7.488;2023-04-06T14:44:12;4.30;;;2.05;;
25015;SDS011;13029;46.286;7.488;2023-04-06T14:46:38;3.85;;;1.85;;
25015;SDS011;13029;46.286;7.488;2023-04-06T14:49:03;2.65;;;1.88;;
25015;SDS011;13029;46.286;7.488;2023-04-06T14:51:29;2.45;;;1.80;;